sensor_id;sensor_type;location;lat;lon;timestamp;pressure;altitude;pressure_sealevel;temperature;humidity
81802;BME280;71199;52.490;5.448;2023-07-20T00:02:13;101591.50;;;14.59;84.70
81802;BME280;71199;52.490;5.448;2023-07-20T00:04:39;101590.81;;;14.57;84.09
81802;BME280;71199;52.490;5.448;2023-07-20T00:07:04;101590.97;;;14.55;84.42
81802;BME280;71199;52.490;5.448;2023-07-20T00:09:30;101587.69;;;14.51;84.17
81802;BME280;71199;52.490;5.448;2023-07-20T00:11:56;101591.13;;;14.54;84.32
81802;BME280;71199;52.490;5.448;2023-07-20T00:14:21;101594.09;;;14.52;85.33
81802;BME280;71199;52.490;5.448;2023-07-20T00:16:47;101592.88;;;14.55;84.89
81802;BME280;71199;52.490;5.448;2023-07-20T00:19:17;101588.63;;;14.44;85.47
81802;BME280;71199;52.490;5.448;2023-07-20T00:21:42;101587.38;;;14.46;84.84
81802;BME280;71199;52.490;5.448;2023-07-20T00:24:07;101585.53;;;14.39;84.66
81802;BME280;71199;52.490;5.448;2023-07-20T00:26:33;101588.66;;;14.36;85.03
81802;BME280;71199;52.490;5.448;2023-07-20T00:28:59;101595.72;;;14.38;85.61
81802;BME280;71199;52.490;5.448;2023-07-20T00:31:24;101593.16;;;14.28;85.39
81802;BME280;71199;52.490;5.448;2023-07-20T00:33:49;101594.75;;;14.31;84.71
81802;BME280;71199;52.490;5.448;2023-07-20T00:36:15;101598.53;;;14.30;84.38
81802;BME280;71199;52.490;5.448;2023-07-20T00:38:41;101588.88;;;14.26;84.49
81802;BME280;71199;52.490;5.448;2023-07-20T00:41:07;101581.03;;;14.38;84.74
81802;BME280;71199;52.490;5.448;2023-07-20T00:43:32;101591.72;;;14.41;84.65
81802;BME280;71199;52.490;5.448;2023-07-20T00:45:57;101581.72;;;14.40;84.88
81802;BME280;71199;52.490;5.448;2023-07-20T00:48:23;101582.44;;;14.34;85.12
81802;BME280;71199;52.490;5.448;2023-07-20T00:50:49;101585.03;;;14.35;85.35
81802;BME280;71199;52.490;5.448;2023-07-20T00:53:15;101596.72;;;14.45;85.22
81802;BME280;71199;52.490;5.448;2023-07-20T00:55:41;101593.91;;;14.54;84.79
81802;BME280;71199;52.490;5.448;2023-07-20T00:58:06;101592.88;;;14.63;84.62
81802;BME280;71199;52.490;5.448;2023-07-20T01:00:32;101589.25;;;14.54;85.16
81802;BME280;71199;52.490;5.448;2023-07-20T01:02:57;101585.31;;;14.48;85.66
81802;BME280;71199;52.490;5.448;2023-07-20T01:05:27;101576.72;;;14.43;85.57
81802;BME280;71199;52.490;5.448;2023-07-20T01:08:04;101594.31;;;14.42;85.66
81802;BME280;71199;52.490;5.448;2023-07-20T01:10:41;101584.50;;;14.40;86.21
81802;BME280;71199;52.490;5.448;2023-07-20T01:13:09;101588.13;;;14.40;86.46
81802;BME280;71199;52.490;5.448;2023-07-20T01:15:35;101587.91;;;14.50;85.94
81802;BME280;71199;52.490;5.448;2023-07-20T01:18:01;101589.97;;;14.56;85.74
81802;BME280;71199;52.490;5.448;2023-07-20T01:20:28;101592.34;;;14.59;85.16
81802;BME280;71199;52.490;5.448;2023-07-20T01:28:37;101592.06;;;14.46;86.00
81802;BME280;71199;52.490;5.448;2023-07-20T01:33:41;101588.38;;;14.54;87.02
81802;BME280;71199;52.490;5.448;2023-07-20T01:36:08;101594.28;;;14.59;87.11
81802;BME280;71199;52.490;5.448;2023-07-20T01:38:36;101592.53;;;14.58;86.75
81802;BME280;71199;52.490;5.448;2023-07-20T01:41:02;101579.03;;;14.55;86.77
81802;BME280;71199;52.490;5.448;2023-07-20T01:43:28;101587.16;;;14.64;85.36
81802;BME280;71199;52.490;5.448;2023-07-20T01:45:53;101581.31;;;14.82;84.03
81802;BME280;71199;52.490;5.448;2023-07-20T01:48:18;101579.53;;;14.89;83.66
81802;BME280;71199;52.490;5.448;2023-07-20T01:50:44;101583.09;;;14.98;83.38
81802;BME280;71199;52.490;5.448;2023-07-20T01:53:09;101580.84;;;15.02;83.26
81802;BME280;71199;52.490;5.448;2023-07-20T01:55:34;101577.63;;;15.13;83.60
81802;BME280;71199;52.490;5.448;2023-07-20T01:58:00;101585.94;;;15.13;83.14
81802;BME280;71199;52.490;5.448;2023-07-20T02:00:27;101590.09;;;15.09;83.10
81802;BME280;71199;52.490;5.448;2023-07-20T02:02:52;101584.28;;;15.04;82.95
81802;BME280;71199;52.490;5.448;2023-07-20T02:05:17;101590.63;;;14.89;83.28
81802;BME280;71199;52.490;5.448;2023-07-20T02:07:43;101591.91;;;14.79;84.51
81802;BME280;71199;52.490;5.448;2023-07-20T02:10:09;101584.56;;;14.63;85.10
81802;BME280;71199;52.490;5.448;2023-07-20T02:12:34;101586.03;;;14.42;85.61
81802;BME280;71199;52.490;5.448;2023-07-20T02:14:59;101597.34;;;14.24;86.39
81802;BME280;71199;52.490;5.448;2023-07-20T02:17:25;101593.94;;;14.06;87.66
81802;BME280;71199;52.490;5.448;2023-07-20T02:19:52;101601.44;;;13.89;88.57
81802;BME280;71199;52.490;5.448;2023-07-20T02:22:17;101599.22;;;13.76;88.98
81802;BME280;71199;52.490;5.448;2023-07-20T02:24:43;101595.63;;;13.67;89.68
81802;BME280;71199;52.490;5.448;2023-07-20T02:27:08;101601.66;;;13.55;89.79
81802;BME280;71199;52.490;5.448;2023-07-20T02:29:34;101592.53;;;13.46;90.05
81802;BME280;71199;52.490;5.448;2023-07-20T02:31:59;101605.50;;;13.37;91.33
81802;BME280;71199;52.490;5.448;2023-07-20T02:34:24;101607.75;;;13.34;91.30
81802;BME280;71199;52.490;5.448;2023-07-20T02:36:50;101613.22;;;13.25;91.66
81802;BME280;71199;52.490;5.448;2023-07-20T02:39:15;101604.94;;;13.17;91.80
81802;BME280;71199;52.490;5.448;2023-07-20T02:41:41;101606.31;;;13.13;91.93
81802;BME280;71199;52.490;5.448;2023-07-20T02:44:06;101611.16;;;13.11;92.19
81802;BME280;71199;52.490;5.448;2023-07-20T02:46:32;101608.22;;;13.04;92.24
81802;BME280;71199;52.490;5.448;2023-07-20T02:48:57;101608.91;;;13.06;92.73
81802;BME280;71199;52.490;5.448;2023-07-20T02:51:23;101603.56;;;13.05;92.84
81802;BME280;71199;52.490;5.448;2023-07-20T02:53:48;101609.78;;;13.07;92.90
81802;BME280;71199;52.490;5.448;2023-07-20T02:56:13;101611.16;;;13.03;92.61
81802;BME280;71199;52.490;5.448;2023-07-20T02:58:41;101618.03;;;13.07;92.92
81802;BME280;71199;52.490;5.448;2023-07-20T03:01:11;101617.88;;;13.08;93.12
81802;BME280;71199;52.490;5.448;2023-07-20T03:03:37;101607.91;;;13.07;93.11
81802;BME280;71199;52.490;5.448;2023-07-20T03:06:07;101613.75;;;13.04;92.71
81802;BME280;71199;52.490;5.448;2023-07-20T03:08:34;101617.34;;;12.97;92.91
81802;BME280;71199;52.490;5.448;2023-07-20T03:11:00;101626.13;;;12.92;93.31
81802;BME280;71199;52.490;5.448;2023-07-20T03:13:26;101623.19;;;12.85;93.04
81802;BME280;71199;52.490;5.448;2023-07-20T03:15:52;101626.09;;;12.76;93.18
81802;BME280;71199;52.490;5.448;2023-07-20T03:18:18;101625.25;;;12.75;93.32
81802;BME280;71199;52.490;5.448;2023-07-20T03:20:43;101631.78;;;12.74;93.60
81802;BME280;71199;52.490;5.448;2023-07-20T03:23:08;101637.66;;;12.71;93.49
81802;BME280;71199;52.490;5.448;2023-07-20T03:25:34;101637.28;;;12.66;93.02
81802;BME280;71199;52.490;5.448;2023-07-20T03:28:02;101635.03;;;12.61;93.22
81802;BME280;71199;52.490;5.448;2023-07-20T03:30:28;101636.03;;;12.52;93.53
81802;BME280;71199;52.490;5.448;2023-07-20T03:32:53;101647.53;;;12.47;93.50
81802;BME280;71199;52.490;5.448;2023-07-20T03:35:18;101642.00;;;12.39;93.62
81802;BME280;71199;52.490;5.448;2023-07-20T03:37:44;101644.75;;;12.39;93.52
81802;BME280;71199;52.490;5.448;2023-07-20T03:40:10;101641.69;;;12.42;93.75
81802;BME280;71199;52.490;5.448;2023-07-20T03:42:35;101647.91;;;12.44;94.05
81802;BME280;71199;52.490;5.448;2023-07-20T03:45:01;101649.59;;;12.45;94.18
81802;BME280;71199;52.490;5.448;2023-07-20T03:47:28;101643.41;;;12.43;94.12
81802;BME280;71199;52.490;5.448;2023-07-20T03:49:53;101641.69;;;12.42;94.53
81802;BME280;71199;52.490;5.448;2023-07-20T03:52:18;101632.72;;;12.40;94.01
81802;BME280;71199;52.490;5.448;2023-07-20T03:54:44;101649.25;;;12.40;94.23
81802;BME280;71199;52.490;5.448;2023-07-20T03:57:09;101650.13;;;12.41;94.27
81802;BME280;71199;52.490;5.448;2023-07-20T03:59:37;101643.56;;;12.34;93.77
81802;BME280;71199;52.490;5.448;2023-07-20T04:02:03;101639.22;;;12.31;94.15
81802;BME280;71199;52.490;5.448;2023-07-20T04:04:31;101644.56;;;12.33;94.45
81802;BME280;71199;52.490;5.448;2023-07-20T04:06:56;101638.91;;;12.34;94.46
81802;BME280;71199;52.490;5.448;2023-07-20T04:09:21;101653.03;;;12.39;94.52
81802;BME280;71199;52.490;5.448;2023-07-20T04:11:47;101657.72;;;12.47;94.38
81802;BME280;71199;52.490;5.448;2023-07-20T04:14:12;101658.59;;;12.56;94.26
81802;BME280;71199;52.490;5.448;2023-07-20T04:16:37;101652.97;;;12.74;94.29
81802;BME280;71199;52.490;5.448;2023-07-20T04:19:03;101655.81;;;12.98;94.23
81802;BME280;71199;52.490;5.448;2023-07-20T04:21:28;101649.97;;;13.26;93.95
81802;BME280;71199;52.490;5.448;2023-07-20T04:23:54;101658.13;;;13.52;93.81
81802;BME280;71199;52.490;5.448;2023-07-20T04:26:19;101653.28;;;13.70;93.36
81802;BME280;71199;52.490;5.448;2023-07-20T04:28:44;101652.94;;;13.82;92.33
81802;BME280;71199;52.490;5.448;2023-07-20T04:31:11;101657.91;;;13.86;91.46
81802;BME280;71199;52.490;5.448;2023-07-20T04:33:37;101660.31;;;13.89;91.00
81802;BME280;71199;52.490;5.448;2023-07-20T04:36:03;101664.97;;;13.97;90.00
81802;BME280;71199;52.490;5.448;2023-07-20T04:38:28;101657.31;;;14.16;89.13
81802;BME280;71199;52.490;5.448;2023-07-20T04:40:53;101666.19;;;14.50;86.56
81802;BME280;71199;52.490;5.448;2023-07-20T04:43:19;101671.09;;;14.80;85.74
81802;BME280;71199;52.490;5.448;2023-07-20T04:45:44;101659.88;;;15.04;84.33
81802;BME280;71199;52.490;5.448;2023-07-20T04:48:11;101668.31;;;15.34;83.80
81802;BME280;71199;52.490;5.448;2023-07-20T04:50:37;101661.34;;;15.61;82.30
81802;BME280;71199;52.490;5.448;2023-07-20T04:53:03;101665.63;;;15.87;81.03
81802;BME280;71199;52.490;5.448;2023-07-20T04:55:28;101665.94;;;16.07;80.29
81802;BME280;71199;52.490;5.448;2023-07-20T04:57:54;101662.88;;;16.31;79.36
81802;BME280;71199;52.490;5.448;2023-07-20T05:00:19;101666.53;;;16.32;78.33
81802;BME280;71199;52.490;5.448;2023-07-20T05:02:46;101667.66;;;16.38;77.98
81802;BME280;71199;52.490;5.448;2023-07-20T05:05:14;101670.31;;;16.61;77.56
81802;BME280;71199;52.490;5.448;2023-07-20T05:07:40;101680.94;;;16.87;76.76
81802;BME280;71199;52.490;5.448;2023-07-20T05:10:05;101673.66;;;17.01;75.41
81802;BME280;71199;52.490;5.448;2023-07-20T05:12:31;101674.53;;;16.86;75.41
81802;BME280;71199;52.490;5.448;2023-07-20T05:14:56;101672.06;;;16.62;75.74
81802;BME280;71199;52.490;5.448;2023-07-20T05:17:22;101675.22;;;16.44;76.77
81802;BME280;71199;52.490;5.448;2023-07-20T05:19:47;101671.56;;;16.28;76.20
81802;BME280;71199;52.490;5.448;2023-07-20T05:22:17;101686.50;;;16.13;76.79
81802;BME280;71199;52.490;5.448;2023-07-20T05:24:42;101681.50;;;15.93;78.16
81802;BME280;71199;52.490;5.448;2023-07-20T05:27:08;101685.34;;;15.69;79.21
81802;BME280;71199;52.490;5.448;2023-07-20T05:29:33;101684.44;;;15.54;80.43
81802;BME280;71199;52.490;5.448;2023-07-20T05:31:59;101680.94;;;15.37;80.68
81802;BME280;71199;52.490;5.448;2023-07-20T05:34:24;101685.34;;;15.23;80.76
81802;BME280;71199;52.490;5.448;2023-07-20T05:36:49;101684.78;;;15.27;80.91
81802;BME280;71199;52.490;5.448;2023-07-20T05:39:16;101688.31;;;15.44;80.71
81802;BME280;71199;52.490;5.448;2023-07-20T05:41:42;101685.03;;;15.87;79.73
81802;BME280;71199;52.490;5.448;2023-07-20T05:44:07;101684.31;;;16.52;77.03
81802;BME280;71199;52.490;5.448;2023-07-20T05:46:33;101681.72;;;16.81;75.50
81802;BME280;71199;52.490;5.448;2023-07-20T05:48:58;101684.94;;;17.21;74.74
81802;BME280;71199;52.490;5.448;2023-07-20T05:51:23;101677.59;;;17.78;73.34
81802;BME280;71199;52.490;5.448;2023-07-20T05:53:49;101674.25;;;18.10;71.74
81802;BME280;71199;52.490;5.448;2023-07-20T05:56:14;101679.81;;;18.10;70.62
81802;BME280;71199;52.490;5.448;2023-07-20T05:58:39;101677.25;;;18.50;69.76
81802;BME280;71199;52.490;5.448;2023-07-20T06:01:05;101676.94;;;19.15;68.31
81802;BME280;71199;52.490;5.448;2023-07-20T06:03:33;101675.94;;;19.83;65.35
81802;BME280;71199;52.490;5.448;2023-07-20T06:06:03;101668.53;;;20.48;62.90
81802;BME280;71199;52.490;5.448;2023-07-20T06:08:30;101683.13;;;21.16;60.49
81802;BME280;71199;52.490;5.448;2023-07-20T06:10:55;101685.06;;;21.15;57.48
81802;BME280;71199;52.490;5.448;2023-07-20T06:13:21;101678.84;;;20.68;58.59
81802;BME280;71199;52.490;5.448;2023-07-20T06:15:46;101692.84;;;20.41;59.23
81802;BME280;71199;52.490;5.448;2023-07-20T06:18:13;101682.56;;;20.35;59.42
81802;BME280;71199;52.490;5.448;2023-07-20T06:20:38;101687.09;;;20.16;58.92
81802;BME280;71199;52.490;5.448;2023-07-20T06:23:03;101677.03;;;19.82;59.47
81802;BME280;71199;52.490;5.448;2023-07-20T06:25:29;101689.84;;;19.36;60.14
81802;BME280;71199;52.490;5.448;2023-07-20T06:27:55;101688.19;;;18.93;61.99
81802;BME280;71199;52.490;5.448;2023-07-20T06:30:21;101689.06;;;18.52;63.10
81802;BME280;71199;52.490;5.448;2023-07-20T06:32:46;101705.50;;;18.12;64.54
81802;BME280;71199;52.490;5.448;2023-07-20T06:35:12;101697.25;;;17.76;66.16
81802;BME280;71199;52.490;5.448;2023-07-20T06:37:37;101706.00;;;17.51;67.37
81802;BME280;71199;52.490;5.448;2023-07-20T06:40:03;101699.50;;;17.23;65.55
81802;BME280;71199;52.490;5.448;2023-07-20T06:42:29;101701.19;;;17.02;64.36
81802;BME280;71199;52.490;5.448;2023-07-20T06:44:56;101701.63;;;17.21;64.12
81802;BME280;71199;52.490;5.448;2023-07-20T06:47:21;101706.00;;;17.51;63.28
81802;BME280;71199;52.490;5.448;2023-07-20T06:49:47;101705.34;;;18.21;61.67
81802;BME280;71199;52.490;5.448;2023-07-20T06:52:12;101702.41;;;18.64;59.91
81802;BME280;71199;52.490;5.448;2023-07-20T06:54:38;101698.53;;;18.65;59.30
81802;BME280;71199;52.490;5.448;2023-07-20T06:57:04;101699.44;;;19.20;57.14
81802;BME280;71199;52.490;5.448;2023-07-20T06:59:30;101705.78;;;19.89;55.47
81802;BME280;71199;52.490;5.448;2023-07-20T07:01:56;101694.59;;;19.69;54.56
81802;BME280;71199;52.490;5.448;2023-07-20T07:04:21;101697.75;;;19.26;55.68
81802;BME280;71199;52.490;5.448;2023-07-20T07:06:46;101706.81;;;18.86;56.70
81802;BME280;71199;52.490;5.448;2023-07-20T07:09:12;101711.63;;;19.12;56.97
81802;BME280;71199;52.490;5.448;2023-07-20T07:11:37;101706.81;;;19.61;55.22
81802;BME280;71199;52.490;5.448;2023-07-20T07:14:03;101706.63;;;20.03;55.06
81802;BME280;71199;52.490;5.448;2023-07-20T07:16:28;101715.97;;;20.75;52.63
81802;BME280;71199;52.490;5.448;2023-07-20T07:18:54;101706.91;;;21.25;50.05
81802;BME280;71199;52.490;5.448;2023-07-20T07:21:19;101706.81;;;21.06;49.51
81802;BME280;71199;52.490;5.448;2023-07-20T07:23:45;101710.88;;;21.17;50.38
81802;BME280;71199;52.490;5.448;2023-07-20T07:26:10;101711.09;;;21.54;49.49
81802;BME280;71199;52.490;5.448;2023-07-20T07:28:36;101721.53;;;21.33;48.35
81802;BME280;71199;52.490;5.448;2023-07-20T07:31:05;101707.25;;;21.48;49.40
81802;BME280;71199;52.490;5.448;2023-07-20T07:33:33;101701.41;;;21.57;49.08
81802;BME280;71199;52.490;5.448;2023-07-20T07:35:59;101713.78;;;21.29;48.73
81802;BME280;71199;52.490;5.448;2023-07-20T07:38:25;101717.19;;;21.38;48.31
81802;BME280;71199;52.490;5.448;2023-07-20T07:40:50;101712.88;;;21.42;47.79
81802;BME280;71199;52.490;5.448;2023-07-20T07:43:16;101711.41;;;20.87;48.10
81802;BME280;71199;52.490;5.448;2023-07-20T07:45:41;101711.13;;;20.24;51.05
81802;BME280;71199;52.490;5.448;2023-07-20T07:48:07;101717.16;;;19.94;52.33
81802;BME280;71199;52.490;5.448;2023-07-20T07:50:33;101724.84;;;19.79;52.76
81802;BME280;71199;52.490;5.448;2023-07-20T07:52:59;101717.56;;;20.18;52.40
81802;BME280;71199;52.490;5.448;2023-07-20T07:55:25;101712.72;;;20.85;51.55
81802;BME280;71199;52.490;5.448;2023-07-20T07:57:53;101721.94;;;21.44;48.73
81802;BME280;71199;52.490;5.448;2023-07-20T08:00:19;101714.41;;;21.69;46.77
81802;BME280;71199;52.490;5.448;2023-07-20T08:02:47;101721.06;;;22.00;47.11
81802;BME280;71199;52.490;5.448;2023-07-20T08:05:15;101727.72;;;22.31;45.34
81802;BME280;71199;52.490;5.448;2023-07-20T08:07:41;101720.09;;;22.38;44.74
81802;BME280;71199;52.490;5.448;2023-07-20T08:10:07;101730.16;;;21.96;44.90
81802;BME280;71199;52.490;5.448;2023-07-20T08:12:33;101734.28;;;21.93;45.35
81802;BME280;71199;52.490;5.448;2023-07-20T08:14:59;101729.81;;;22.10;44.87
81802;BME280;71199;52.490;5.448;2023-07-20T08:17:24;101729.75;;;21.92;44.77
81802;BME280;71199;52.490;5.448;2023-07-20T08:19:50;101727.34;;;21.96;46.60
81802;BME280;71199;52.490;5.448;2023-07-20T08:22:15;101730.03;;;22.09;46.13
81802;BME280;71199;52.490;5.448;2023-07-20T08:24:41;101726.94;;;22.24;45.87
81802;BME280;71199;52.490;5.448;2023-07-20T08:27:07;101742.38;;;22.51;45.17
81802;BME280;71199;52.490;5.448;2023-07-20T08:29:34;101732.03;;;22.89;42.84
81802;BME280;71199;52.490;5.448;2023-07-20T08:31:59;101717.25;;;23.00;42.79
81802;BME280;71199;52.490;5.448;2023-07-20T08:34:24;101719.97;;;22.88;43.16
81802;BME280;71199;52.490;5.448;2023-07-20T08:36:50;101733.03;;;22.58;44.05
81802;BME280;71199;52.490;5.448;2023-07-20T08:39:15;101735.13;;;22.19;44.58
81802;BME280;71199;52.490;5.448;2023-07-20T08:41:42;101726.59;;;22.07;44.61
81802;BME280;71199;52.490;5.448;2023-07-20T08:44:09;101731.81;;;22.28;44.05
81802;BME280;71199;52.490;5.448;2023-07-20T08:46:38;101743.06;;;22.47;42.59
81802;BME280;71199;52.490;5.448;2023-07-20T08:49:04;101737.50;;;22.84;41.79
81802;BME280;71199;52.490;5.448;2023-07-20T08:51:30;101738.09;;;23.23;41.33
81802;BME280;71199;52.490;5.448;2023-07-20T08:53:56;101740.94;;;23.34;41.51
81802;BME280;71199;52.490;5.448;2023-07-20T08:56:23;101743.81;;;23.46;41.46
81802;BME280;71199;52.490;5.448;2023-07-20T08:58:51;101733.81;;;23.50;40.33
81802;BME280;71199;52.490;5.448;2023-07-20T09:01:18;101737.72;;;23.01;41.53
81802;BME280;71199;52.490;5.448;2023-07-20T09:03:45;101738.34;;;23.03;39.78
81802;BME280;71199;52.490;5.448;2023-07-20T09:06:11;101742.50;;;23.30;40.50
81802;BME280;71199;52.490;5.448;2023-07-20T09:08:40;101742.91;;;23.64;39.92
81802;BME280;71199;52.490;5.448;2023-07-20T09:11:06;101731.38;;;23.84;39.35
81802;BME280;71199;52.490;5.448;2023-07-20T09:13:33;101745.50;;;24.20;38.63
81802;BME280;71199;52.490;5.448;2023-07-20T09:15:59;101729.59;;;24.37;38.19
81802;BME280;71199;52.490;5.448;2023-07-20T09:18:25;101732.94;;;24.58;37.46
81802;BME280;71199;52.490;5.448;2023-07-20T09:20:51;101729.44;;;24.91;36.39
81802;BME280;71199;52.490;5.448;2023-07-20T09:23:16;101727.81;;;25.07;35.43
81802;BME280;71199;52.490;5.448;2023-07-20T09:25:42;101734.06;;;25.21;35.57
81802;BME280;71199;52.490;5.448;2023-07-20T09:28:07;101733.50;;;25.36;34.68
81802;BME280;71199;52.490;5.448;2023-07-20T09:30:32;101731.25;;;25.49;35.37
81802;BME280;71199;52.490;5.448;2023-07-20T09:32:58;101729.84;;;25.35;35.82
81802;BME280;71199;52.490;5.448;2023-07-20T09:35:24;101734.16;;;25.14;35.80
81802;BME280;71199;52.490;5.448;2023-07-20T09:37:58;101738.16;;;25.30;34.58
81802;BME280;71199;52.490;5.448;2023-07-20T09:40:25;101734.06;;;24.97;35.55
81802;BME280;71199;52.490;5.448;2023-07-20T09:42:52;101725.47;;;24.75;35.94
81802;BME280;71199;52.490;5.448;2023-07-20T09:45:28;101731.78;;;24.82;35.44
81802;BME280;71199;52.490;5.448;2023-07-20T09:48:03;101732.78;;;24.76;35.55
81802;BME280;71199;52.490;5.448;2023-07-20T09:50:28;101744.25;;;24.39;41.08
81802;BME280;71199;52.490;5.448;2023-07-20T09:52:53;101733.47;;;23.28;41.29
81802;BME280;71199;52.490;5.448;2023-07-20T09:55:19;101731.78;;;22.72;42.96
81802;BME280;71199;52.490;5.448;2023-07-20T09:57:46;101732.94;;;22.64;44.34
81802;BME280;71199;52.490;5.448;2023-07-20T10:00:12;101726.44;;;23.07;42.43
81802;BME280;71199;52.490;5.448;2023-07-20T10:02:44;101735.22;;;22.92;42.77
81802;BME280;71199;52.490;5.448;2023-07-20T10:05:12;101736.28;;;22.73;43.53
81802;BME280;71199;52.490;5.448;2023-07-20T10:07:46;101729.75;;;22.79;42.36
81802;BME280;71199;52.490;5.448;2023-07-20T10:10:16;101728.84;;;23.04;43.02
81802;BME280;71199;52.490;5.448;2023-07-20T10:12:46;101730.38;;;23.00;42.72
81802;BME280;71199;52.490;5.448;2023-07-20T10:15:37;101737.72;;;22.82;45.07
81802;BME280;71199;52.490;5.448;2023-07-20T10:18:22;101732.38;;;22.37;46.80
81802;BME280;71199;52.490;5.448;2023-07-20T10:20:51;101739.75;;;22.06;47.42
81802;BME280;71199;52.490;5.448;2023-07-20T10:23:19;101738.81;;;21.17;47.72
81802;BME280;71199;52.490;5.448;2023-07-20T10:25:45;101728.56;;;20.98;48.97
81802;BME280;71199;52.490;5.448;2023-07-20T10:28:12;101731.88;;;21.26;48.94
81802;BME280;71199;52.490;5.448;2023-07-20T10:30:38;101744.66;;;21.54;47.70
81802;BME280;71199;52.490;5.448;2023-07-20T10:33:05;101739.66;;;21.63;48.29
81802;BME280;71199;52.490;5.448;2023-07-20T10:35:50;101736.03;;;21.87;47.41
81802;BME280;71199;52.490;5.448;2023-07-20T10:38:15;101736.03;;;22.12;44.17
81802;BME280;71199;52.490;5.448;2023-07-20T10:40:40;101722.72;;;22.33;40.93
81802;BME280;71199;52.490;5.448;2023-07-20T10:43:07;101727.22;;;22.34;41.92
81802;BME280;71199;52.490;5.448;2023-07-20T10:45:40;101722.34;;;22.48;43.65
81802;BME280;71199;52.490;5.448;2023-07-20T10:48:13;101725.78;;;22.50;45.92
81802;BME280;71199;52.490;5.448;2023-07-20T10:50:40;101714.97;;;22.35;45.71
81802;BME280;71199;52.490;5.448;2023-07-20T10:53:12;101720.00;;;22.26;45.39
81802;BME280;71199;52.490;5.448;2023-07-20T10:55:39;101714.78;;;22.05;45.62
81802;BME280;71199;52.490;5.448;2023-07-20T10:58:09;101706.91;;;22.20;44.11
81802;BME280;71199;52.490;5.448;2023-07-20T11:00:36;101706.56;;;22.35;42.78
81802;BME280;71199;52.490;5.448;2023-07-20T11:03:01;101702.97;;;22.46;41.93
81802;BME280;71199;52.490;5.448;2023-07-20T11:05:38;101701.75;;;22.61;38.14
81802;BME280;71199;52.490;5.448;2023-07-20T11:08:06;101701.06;;;22.84;37.86
81802;BME280;71199;52.490;5.448;2023-07-20T11:10:34;101698.31;;;22.77;42.47
81802;BME280;71199;52.490;5.448;2023-07-20T11:13:22;101701.06;;;23.02;41.05
81802;BME280;71199;52.490;5.448;2023-07-20T11:18:25;101704.09;;;22.82;42.11
81802;BME280;71199;52.490;5.448;2023-07-20T11:20:51;101704.78;;;22.41;44.33
81802;BME280;71199;52.490;5.448;2023-07-20T11:23:19;101701.25;;;22.02;44.11
81802;BME280;71199;52.490;5.448;2023-07-20T11:25:45;101716.72;;;22.04;43.31
81802;BME280;71199;52.490;5.448;2023-07-20T11:28:11;101703.84;;;22.03;40.32
81802;BME280;71199;52.490;5.448;2023-07-20T11:30:37;101701.72;;;22.24;41.69
81802;BME280;71199;52.490;5.448;2023-07-20T11:33:04;101698.94;;;22.17;42.24
81802;BME280;71199;52.490;5.448;2023-07-20T11:35:30;101696.97;;;21.99;42.46
81802;BME280;71199;52.490;5.448;2023-07-20T11:37:55;101704.13;;;21.63;44.04
81802;BME280;71199;52.490;5.448;2023-07-20T11:40:22;101692.22;;;21.43;46.10
81802;BME280;71199;52.490;5.448;2023-07-20T11:42:48;101705.69;;;21.14;45.84
81802;BME280;71199;52.490;5.448;2023-07-20T11:45:19;101697.22;;;20.89;47.68
81802;BME280;71199;52.490;5.448;2023-07-20T11:47:44;101692.53;;;20.83;46.97
81802;BME280;71199;52.490;5.448;2023-07-20T11:50:10;101699.66;;;20.72;46.10
81802;BME280;71199;52.490;5.448;2023-07-20T11:52:36;101696.03;;;20.65;47.81
81802;BME280;71199;52.490;5.448;2023-07-20T11:55:03;101686.38;;;20.54;46.90
81802;BME280;71199;52.490;5.448;2023-07-20T11:57:28;101692.63;;;20.43;48.36
81802;BME280;71199;52.490;5.448;2023-07-20T12:02:23;101686.47;;;19.81;50.21
81802;BME280;71199;52.490;5.448;2023-07-20T12:04:51;101682.56;;;19.55;51.59
81802;BME280;71199;52.490;5.448;2023-07-20T12:07:18;101678.94;;;19.48;51.63
81802;BME280;71199;52.490;5.448;2023-07-20T12:09:44;101681.06;;;19.59;51.71
81802;BME280;71199;52.490;5.448;2023-07-20T12:12:11;101684.09;;;19.64;52.55
81802;BME280;71199;52.490;5.448;2023-07-20T12:14:37;101682.81;;;19.73;52.72
81802;BME280;71199;52.490;5.448;2023-07-20T12:17:02;101683.25;;;19.84;50.15
81802;BME280;71199;52.490;5.448;2023-07-20T12:19:28;101672.09;;;19.84;49.66
81802;BME280;71199;52.490;5.448;2023-07-20T12:21:57;101674.22;;;19.95;50.37
81802;BME280;71199;52.490;5.448;2023-07-20T12:24:24;101682.81;;;20.00;52.42
81802;BME280;71199;52.490;5.448;2023-07-20T12:26:56;101678.09;;;19.94;52.00
81802;BME280;71199;52.490;5.448;2023-07-20T12:29:22;101674.19;;;19.55;51.15
81802;BME280;71199;52.490;5.448;2023-07-20T12:31:48;101672.47;;;19.41;52.08
81802;BME280;71199;52.490;5.448;2023-07-20T12:34:13;101662.16;;;19.41;54.09
81802;BME280;71199;52.490;5.448;2023-07-20T12:36:38;101668.63;;;19.42;53.04
81802;BME280;71199;52.490;5.448;2023-07-20T12:39:04;101671.63;;;19.40;52.22
81802;BME280;71199;52.490;5.448;2023-07-20T12:41:30;101674.81;;;19.30;53.30
81802;BME280;71199;52.490;5.448;2023-07-20T12:43:56;101671.16;;;19.30;53.59
81802;BME280;71199;52.490;5.448;2023-07-20T12:46:23;101673.56;;;19.46;53.95
81802;BME280;71199;52.490;5.448;2023-07-20T12:48:49;101659.63;;;19.53;53.33
81802;BME280;71199;52.490;5.448;2023-07-20T12:51:14;101661.75;;;19.51;53.29
81802;BME280;71199;52.490;5.448;2023-07-20T12:53:40;101664.09;;;19.41;53.50
81802;BME280;71199;52.490;5.448;2023-07-20T12:56:06;101657.88;;;19.32;54.76
81802;BME280;71199;52.490;5.448;2023-07-20T12:58:31;101661.31;;;19.47;53.37
81802;BME280;71199;52.490;5.448;2023-07-20T13:00:57;101653.19;;;19.52;53.02